Scottsdale Airport

Current Flights

Departures
Arrivals
Info
Name: Scottsdale Airport
Identifier:  SCF/KSDL
Local Time:  16. Jun 00:29
City
Flights per Day
26 flights
Distance: 1,115km (693mi)
Punctuality
91% (2 flights per day delayed)
Delay Average: 3 minutes
Current Weather
 32 C (Humidity: 17%)
  0kt (0km/h / 0mph) from 0°
  16km (10 mi.)
 
 METAR KSDL 160653Z AUTO 00000KT 10SM CLR 32/04 A2980 RMK AO2 SLP061 T03170044 403890239

Current Delays

Departures
N/A
Arrivals
N/A

Destinations

Top Destinations
Airport Flights
per week
Seats
per week
  Las Vegas (LAS) 10 - 1 0
  San Diego (SAN) 7 - 1 0
  San Diego (CLD) 7 - 1 0
  Orange County (SNA) 7 - 1 0
  Tucson (TUS) 6 - 0 0
  Denver (APA) 6 - 0 0
  Phoenix (PHX) 4 - 0 0
  Burbank (BUR) 4 - 0 0
  Los Angeles (LAX) 3 - 0 0
  Flagstaff (FLG) 3 - 0 0

Airlines & Planes

Top Airlines
Airline Flights
per Day
Seats
per Day
NetJets 5 -9
Nordwind Airlines 3 -
  National Airlines 3 -
  Nolinor Aviation 3 -
Jet Charter Inc ( Franklin Lakes Nj ) 2 -
  Novair 1 -
  Flybe Nordic 1 -
Gama Aviation 1 -
Jet Linx Aviation 0 -
Delta Private Jets 0 -
Top Plane Types
Model Flights Seats
Cessna C56X 3.1/day - -2.6666666666666665
Beech B300 Super King Air 350 1.6/day - 0
Bombardier Challenger 350 1.6/day - -1.8666666666666667
Pilatus PC-12 1.4/day - 0
Cessna C68A 1.1/day - -0.8
Embraer Phenom 300 1.0/day - -1.7333333333333334
Beech B200 Super King Air 0.9/day - 0
Cessna C680 0.8/day - -0.9333333333333333
Cessna C750 0.8/day - -0.6